createdAt,value
2023-04-15T00:01:59.967Z,100659.84
2023-04-15T00:07:02.875Z,100666.16
2023-04-15T00:12:05.238Z,100672.38
2023-04-15T00:17:07.416Z,100674.66
2023-04-15T00:22:09.246Z,100680.28
2023-04-15T00:27:11.387Z,100677.06
2023-04-15T00:32:12.888Z,100686.06
2023-04-15T00:37:14.281Z,100678.81
2023-04-15T00:42:15.685Z,100677.56
2023-04-15T00:47:18.882Z,100690.88
2023-04-15T00:52:20.288Z,100690.44
2023-04-15T00:57:22.798Z,100693.66
2023-04-15T01:02:24.868Z,100694.16
2023-04-15T01:07:26.366Z,100697.53
2023-04-15T01:12:28.042Z,100702.34
2023-04-15T01:17:30.098Z,100706.59
2023-04-15T01:22:34.423Z,100707.78
2023-04-15T01:27:38.046Z,100710.97
2023-04-15T01:32:39.616Z,100707.25
2023-04-15T01:37:41.058Z,100699.38
2023-04-15T01:42:42.729Z,100704.00
2023-04-15T01:47:45.339Z,100710.13
2023-04-15T01:52:47.642Z,100706.50
2023-04-15T01:57:49.110Z,100708.94
2023-04-15T02:02:50.785Z,100702.66
2023-04-15T02:07:52.305Z,100707.38
2023-04-15T02:12:54.288Z,100709.59
2023-04-15T02:17:55.791Z,100714.66
2023-04-15T02:22:57.301Z,100723.69
2023-04-15T02:27:58.925Z,100722.44
2023-04-15T02:33:01.146Z,100724.56
2023-04-15T02:38:03.184Z,100734.03
2023-04-15T02:43:06.686Z,100737.84
2023-04-15T02:48:08.073Z,100746.28
2023-04-15T02:53:09.544Z,100755.97
2023-04-15T02:58:11.032Z,100751.47
2023-04-15T03:03:15.200Z,100756.91
2023-04-15T03:08:17.168Z,100754.56
2023-04-15T03:13:18.969Z,100762.00
2023-04-15T03:18:20.472Z,100756.91
2023-04-15T03:23:21.918Z,100765.41
2023-04-15T03:28:23.549Z,100779.06
2023-04-15T03:33:25.017Z,100786.13
2023-04-15T03:38:27.048Z,100780.31
2023-04-15T03:43:28.495Z,100789.25
2023-04-15T03:48:29.961Z,100790.22
2023-04-15T03:53:31.476Z,100795.56
2023-04-15T03:58:32.944Z,100799.75
2023-04-15T04:03:34.498Z,100802.16
2023-04-15T04:08:36.152Z,100802.97
2023-04-15T04:13:37.686Z,100817.66
2023-04-15T04:18:39.132Z,100820.28
2023-04-15T04:23:40.579Z,100828.53
2023-04-15T04:28:41.999Z,100839.50
2023-04-15T04:33:43.513Z,100841.81
2023-04-15T04:38:44.974Z,100851.72
2023-04-15T04:43:46.383Z,100856.16
2023-04-15T04:48:47.928Z,100854.78
2023-04-15T04:53:49.357Z,100867.28
2023-04-15T04:58:51.283Z,100877.25
2023-04-15T05:03:52.971Z,100878.13
2023-04-15T05:08:54.467Z,100893.38
2023-04-15T05:13:56.130Z,100900.28
2023-04-15T05:18:57.544Z,100906.44
2023-04-15T05:23:59.009Z,100921.69
2023-04-15T05:29:00.791Z,100926.03
2023-04-15T05:34:03.426Z,100940.22
2023-04-15T05:39:04.885Z,100948.50
2023-04-15T05:44:06.660Z,100951.22
2023-04-15T05:49:08.080Z,100953.75
2023-04-15T05:54:09.550Z,100947.19
2023-04-15T05:59:11.086Z,100956.94
2023-04-15T06:04:12.622Z,100958.97
2023-04-15T06:09:14.221Z,100969.16
2023-04-15T06:14:15.695Z,100980.47
2023-04-15T06:19:18.359Z,100989.56
2023-04-15T06:24:19.807Z,101001.78
2023-04-15T06:29:21.269Z,101004.66
2023-04-15T06:34:22.712Z,101014.31
2023-04-15T06:39:24.186Z,101022.41
2023-04-15T06:44:25.873Z,101026.41
2023-04-15T06:49:27.263Z,101036.13
2023-04-15T06:54:28.682Z,101044.03
2023-04-15T06:59:30.172Z,101054.00
2023-04-15T07:04:31.726Z,101050.69
2023-04-15T07:09:34.192Z,101057.75
2023-04-15T07:14:36.413Z,101066.34
2023-04-15T07:19:38.091Z,101067.22
2023-04-15T07:24:39.726Z,101065.47
2023-04-15T07:29:41.397Z,101071.47
2023-04-15T07:34:43.170Z,101079.19
2023-04-15T07:39:44.553Z,101085.41
2023-04-15T07:44:45.989Z,101087.72
2023-04-15T07:49:47.424Z,101099.84
2023-04-15T07:54:48.917Z,101102.56
2023-04-15T07:59:50.650Z,101112.72
2023-04-15T08:04:53.244Z,101108.53
2023-04-15T08:09:54.778Z,101112.91
2023-04-15T08:14:57.463Z,101110.13
2023-04-15T08:19:59.005Z,101115.25
2023-04-15T08:25:00.428Z,101117.16
2023-04-15T08:30:04.675Z,101119.00
2023-04-15T08:35:06.876Z,101117.06
2023-04-15T08:40:09.926Z,101123.31
2023-04-15T08:45:11.386Z,101124.44
2023-04-15T08:50:14.466Z,101127.31
2023-04-15T08:55:16.558Z,101135.41
2023-04-15T09:00:18.886Z,101135.91
2023-04-15T09:05:21.593Z,101136.78
2023-04-15T09:10:23.194Z,101138.00
2023-04-15T09:15:29.811Z,101140.88
2023-04-15T09:20:38.629Z,101147.19
2023-04-15T09:25:44.570Z,101147.84
2023-04-15T09:30:49.166Z,101151.53
2023-04-15T09:36:03.549Z,101158.31
2023-04-15T09:41:19.641Z,101167.69
2023-04-15T09:46:21.173Z,101166.06
2023-04-15T09:51:34.971Z,101165.56
2023-04-15T09:56:38.815Z,101174.53
2023-04-15T10:01:42.851Z,101173.72
2023-04-15T10:06:44.326Z,101172.97
2023-04-15T10:11:46.115Z,101182.59
2023-04-15T10:16:49.042Z,101182.50
2023-04-15T10:21:51.879Z,101179.66
2023-04-15T10:26:54.358Z,101189.56
2023-04-15T10:31:56.915Z,101193.72
2023-04-15T10:37:03.892Z,101183.75
2023-04-15T10:42:20.099Z,101197.34
2023-04-15T10:47:22.332Z,101189.22
2023-04-15T10:52:28.725Z,101203.56
2023-04-15T10:57:38.503Z,101211.59
2023-04-15T11:02:53.327Z,101223.13
2023-04-15T11:07:58.805Z,101215.63
2023-04-15T11:13:03.207Z,101220.81
2023-04-15T11:18:16.205Z,101222.19
2023-04-15T11:23:19.636Z,101224.69
2023-04-15T11:28:21.133Z,101235.22
2023-04-15T11:33:30.006Z,101239.75
2023-04-15T11:38:31.849Z,101240.47
2023-04-15T11:43:35.653Z,101235.94
2023-04-15T11:48:44.606Z,101247.34
2023-04-15T11:53:46.181Z,101244.03
2023-04-15T11:58:50.688Z,101254.38
2023-04-15T12:03:52.477Z,101247.63
2023-04-15T12:09:00.202Z,101251.13
2023-04-15T12:14:08.992Z,101270.84
2023-04-15T12:19:12.946Z,101262.47
2023-04-15T12:24:14.853Z,101276.13
2023-04-15T12:29:17.645Z,101280.53
2023-04-15T12:34:45.160Z,101294.25
2023-04-15T12:39:51.618Z,101297.81
2023-04-15T12:44:53.493Z,101308.34
2023-04-15T12:49:54.930Z,101328.81
2023-04-15T12:54:56.640Z,101319.03
2023-04-15T12:59:58.063Z,101337.16
2023-04-15T13:04:59.446Z,101335.13
2023-04-15T13:10:01.092Z,101357.09
2023-04-15T13:15:09.501Z,101350.78
2023-04-15T13:20:11.101Z,101356.53
2023-04-15T13:25:12.545Z,101368.22
2023-04-15T13:30:13.921Z,101365.50
2023-04-15T13:35:15.472Z,101380.22
2023-04-15T13:40:16.977Z,101375.88
2023-04-15T13:45:21.688Z,101380.44
2023-04-15T13:50:23.461Z,101397.03
2023-04-15T13:55:26.420Z,101399.97
2023-04-15T14:00:28.613Z,101409.88
2023-04-15T14:05:30.344Z,101420.94
2023-04-15T14:10:31.977Z,101432.38
2023-04-15T14:15:33.415Z,101444.13
2023-04-15T14:20:34.809Z,101450.28
2023-04-15T14:25:36.223Z,101457.56
2023-04-15T14:30:37.677Z,101463.66
2023-04-15T14:35:39.372Z,101472.78
2023-04-15T14:40:41.625Z,101475.66
2023-04-15T14:45:44.655Z,101478.38
2023-04-15T14:50:47.000Z,101487.50
2023-04-15T14:55:48.427Z,101506.19
2023-04-15T15:00:49.975Z,101497.94
2023-04-15T15:05:51.853Z,101509.31
2023-04-15T15:10:53.356Z,101516.66
2023-04-15T15:15:54.904Z,101528.78
2023-04-15T15:20:56.600Z,101527.50
2023-04-15T15:25:58.792Z,101542.50
2023-04-15T15:31:00.547Z,101540.78
2023-04-15T15:36:04.523Z,101547.84
2023-04-15T15:41:06.000Z,101538.94
2023-04-15T15:46:07.522Z,101558.97
2023-04-15T15:51:09.187Z,101549.16
2023-04-15T15:56:10.830Z,101562.38
2023-04-15T16:01:12.379Z,101576.75
2023-04-15T16:06:14.098Z,101575.78
2023-04-15T16:11:15.587Z,101588.69
2023-04-15T16:16:17.129Z,101594.31
2023-04-15T16:21:20.236Z,101602.03
2023-04-15T16:26:21.867Z,101607.78
2023-04-15T16:31:23.432Z,101614.09
2023-04-15T16:36:24.896Z,101627.97
2023-04-15T16:41:26.319Z,101638.66
2023-04-15T16:46:29.540Z,101642.72
2023-04-15T16:51:32.024Z,101653.94
2023-04-15T16:56:33.669Z,101653.84
2023-04-15T17:01:35.175Z,101671.75
2023-04-15T17:06:36.595Z,101671.41
2023-04-15T17:11:40.940Z,101666.75
2023-04-15T17:16:43.173Z,101667.09
2023-04-15T17:21:44.789Z,101663.53
2023-04-15T17:26:47.070Z,101681.31
2023-04-15T17:31:48.524Z,101693.81
2023-04-15T17:36:51.438Z,101700.72
2023-04-15T17:41:52.896Z,101712.47
2023-04-15T17:46:54.468Z,101708.22
2023-04-15T17:51:55.985Z,101706.47
2023-04-15T17:56:57.984Z,101712.66
2023-04-15T18:01:59.505Z,101728.06
2023-04-15T18:07:01.366Z,101733.78
2023-04-15T18:12:04.573Z,101732.97
2023-04-15T18:17:06.081Z,101739.13
2023-04-15T18:22:07.537Z,101754.34
2023-04-15T18:27:09.075Z,101757.38
2023-04-15T18:32:10.829Z,101772.09
2023-04-15T18:37:12.253Z,101780.53
2023-04-15T18:42:16.296Z,101778.31
2023-04-15T18:47:18.321Z,101787.94
2023-04-15T18:52:22.380Z,101793.34
2023-04-15T18:57:28.688Z,101789.25
2023-04-15T19:02:36.173Z,101794.03
2023-04-15T19:07:42.056Z,101793.16
2023-04-15T19:12:50.363Z,101800.19
2023-04-15T19:17:52.089Z,101806.78
2023-04-15T19:22:57.460Z,101812.94
2023-04-15T19:27:59.996Z,101819.66
2023-04-15T19:33:01.685Z,101820.66
2023-04-15T19:38:03.343Z,101830.78
2023-04-15T19:43:04.764Z,101835.66
2023-04-15T19:48:07.632Z,101830.78
2023-04-15T19:53:09.129Z,101846.25
2023-04-15T19:58:10.609Z,101851.19
2023-04-15T20:03:12.932Z,101837.56
2023-04-15T20:08:14.549Z,101834.91
2023-04-15T20:13:16.181Z,101833.03
2023-04-15T20:18:17.632Z,101845.94
2023-04-15T20:23:21.918Z,101847.75
2023-04-15T20:28:25.722Z,101851.81
2023-04-15T20:33:27.575Z,101852.75
2023-04-15T20:38:29.098Z,101859.53
2023-04-15T20:43:30.615Z,101868.19
2023-04-15T20:48:32.016Z,101863.91
2023-04-15T20:53:33.445Z,101863.97
2023-04-15T20:58:34.851Z,101864.53
2023-04-15T21:03:36.395Z,101871.94
2023-04-15T21:08:37.794Z,101862.63
2023-04-15T21:13:39.291Z,101863.84
2023-04-15T21:18:40.908Z,101866.88
2023-04-15T21:23:42.501Z,101862.59
2023-04-15T21:28:43.958Z,101871.56
2023-04-15T21:33:46.841Z,101878.97
2023-04-15T21:38:48.251Z,101882.53
2023-04-15T21:43:49.716Z,101884.34
2023-04-15T21:48:52.509Z,101886.09
2023-04-15T21:53:53.955Z,101880.00
2023-04-15T21:58:57.030Z,101893.81
2023-04-15T22:03:58.645Z,101899.22
2023-04-15T22:09:00.366Z,101898.22
2023-04-15T22:14:01.848Z,101910.13
2023-04-15T22:19:03.616Z,101913.75
2023-04-15T22:24:38.729Z,101918.94
2023-04-15T22:29:27.160Z,101919.97
2023-04-15T22:34:28.602Z,101925.84
2023-04-15T22:39:29.982Z,101932.97
2023-04-15T22:44:31.342Z,101927.91
2023-04-15T22:49:34.997Z,101929.56
2023-04-15T22:54:36.543Z,101937.41
2023-04-15T22:59:38.002Z,101931.44
2023-04-15T23:04:39.567Z,101928.84
2023-04-15T23:09:41.123Z,101941.94
2023-04-15T23:14:42.572Z,101944.50
2023-04-15T23:19:44.138Z,101941.84
2023-04-15T23:24:45.818Z,101954.06
2023-04-15T23:29:47.469Z,101955.75
2023-04-15T23:34:48.988Z,101960.16
2023-04-15T23:39:50.360Z,101965.38
2023-04-15T23:44:51.871Z,101963.91
2023-04-15T23:49:53.337Z,101974.94
2023-04-15T23:54:54.772Z,101968.91
2023-04-15T23:59:56.441Z,101978.31
